Time;durP1;ratioP1;P1;durP2;ratioP2;P2;SDS_P1;SDS_P2;PMS_P1;PMS_P2;Temp;Humidity;BMP_temperature;BMP_pressure;BME280_temperature;BME280_humidity;BME280_pressure;Samples;Min_cycle;Max_cycle;Signal;HPM_P1;HPM_P2
2022/01/11 00:01:41;;;;;;;37.83;24.93;;;;;;;;;;5031688;28;20471;-77
2022/01/11 00:04:08;;;;;;;33.93;25.17;;;;;;;;;;5047406;28;20455;-76
2022/01/11 00:06:40;;;;;;;33.87;24.03;;;;;;;;;;5051047;28;20463;-75
2022/01/11 00:09:19;;;;;;;32.33;24.93;;;;;;;;;;5050933;28;20960;-75
2022/01/11 00:11:46;;;;;;;33.17;24.53;;;;;;;;;;5051003;28;20948;-76
2022/01/11 00:14:13;;;;;;;34.00;23.97;;;;;;;;;;5050734;28;20863;-76
2022/01/11 00:16:42;;;;;;;33.90;24.90;;;;;;;;;;5050809;28;20540;-76
2022/01/11 00:19:09;;;;;;;33.27;24.40;;;;;;;;;;5051097;28;20434;-75
2022/01/11 00:21:44;;;;;;;35.00;23.80;;;;;;;;;;5050819;28;20446;-75
2022/01/11 00:24:30;;;;;;;30.67;24.47;;;;;;;;;;5050703;28;20449;-76
2022/01/11 00:26:58;;;;;;;32.63;24.23;;;;;;;;;;5050743;28;20516;-77
2022/01/11 00:29:25;;;;;;;36.10;23.90;;;;;;;;;;5051161;28;20874;-76
2022/01/11 00:31:57;;;;;;;33.40;24.20;;;;;;;;;;5050919;28;20470;-75
2022/01/11 00:34:25;;;;;;;33.23;24.80;;;;;;;;;;5050650;28;20537;-76
2022/01/11 00:36:52;;;;;;;32.50;24.70;;;;;;;;;;5050679;28;20560;-76
2022/01/11 00:39:19;;;;;;;34.13;24.90;;;;;;;;;;5050669;28;20926;-76
2022/01/11 00:41:46;;;;;;;35.40;24.90;;;;;;;;;;5050558;28;20514;-76
2022/01/11 00:44:13;;;;;;;35.50;24.10;;;;;;;;;;5050070;28;20541;-76
2022/01/11 00:46:41;;;;;;;34.30;25.60;;;;;;;;;;5050440;28;20469;-75
2022/01/11 00:49:09;;;;;;;31.03;22.80;;;;;;;;;;5050834;28;20426;-77
2022/01/11 00:51:36;;;;;;;31.67;24.20;;;;;;;;;;5050459;28;20450;-75
2022/01/11 00:54:03;;;;;;;35.43;24.53;;;;;;;;;;5050517;28;20443;-76
2022/01/11 00:56:31;;;;;;;31.43;24.97;;;;;;;;;;5046114;28;20474;-77
2022/01/11 00:58:58;;;;;;;30.10;24.63;;;;;;;;;;5048259;28;20454;-76
2022/01/11 01:01:27;;;;;;;32.47;24.37;;;;;;;;;;5050320;28;20481;-76
2022/01/11 01:03:54;;;;;;;32.90;24.27;;;;;;;;;;5050110;28;20455;-77
2022/01/11 01:06:22;;;;;;;34.67;23.97;;;;;;;;;;5047722;28;20942;-76
2022/01/11 01:08:49;;;;;;;34.50;25.20;;;;;;;;;;5036973;28;20451;-76
2022/01/11 01:11:16;;;;;;;30.20;23.20;;;;;;;;;;5049149;28;20450;-76
2022/01/11 01:13:43;;;;;;;31.40;23.13;;;;;;;;;;5050061;28;20450;-76
2022/01/11 01:16:10;;;;;;;32.30;23.80;;;;;;;;;;5050008;28;20438;-76
2022/01/11 01:18:38;;;;;;;33.67;24.73;;;;;;;;;;5044319;28;20852;-75
2022/01/11 01:21:05;;;;;;;33.70;23.97;;;;;;;;;;5035703;28;20478;-76
2022/01/11 01:23:34;;;;;;;41.77;24.90;;;;;;;;;;5039590;28;20544;-77
2022/01/11 01:26:01;;;;;;;41.80;26.67;;;;;;;;;;5047013;28;20557;-76
2022/01/11 01:28:29;;;;;;;34.60;26.17;;;;;;;;;;5033503;28;20534;-75
2022/01/11 01:31:00;;;;;;;39.93;27.13;;;;;;;;;;5043599;28;20440;-76
2022/01/11 01:33:28;;;;;;;34.00;26.80;;;;;;;;;;5042322;28;20443;-76
2022/01/11 01:36:01;;;;;;;37.00;27.10;;;;;;;;;;5034827;28;20483;-76
2022/01/11 01:38:28;;;;;;;31.83;25.47;;;;;;;;;;5035454;28;20579;-76
2022/01/11 01:41:01;;;;;;;38.43;27.60;;;;;;;;;;5030072;28;20447;-75
2022/01/11 01:43:28;;;;;;;36.07;26.53;;;;;;;;;;5034737;28;21210;-76
2022/01/11 01:45:59;;;;;;;38.90;27.40;;;;;;;;;;5029852;28;20443;-76
2022/01/11 01:48:26;;;;;;;37.73;26.93;;;;;;;;;;5038036;28;20472;-77
2022/01/11 01:50:53;;;;;;;37.83;27.30;;;;;;;;;;5049755;28;20472;-76
2022/01/11 01:53:20;;;;;;;35.73;26.50;;;;;;;;;;5047171;28;20450;-76
2022/01/11 01:55:48;;;;;;;34.30;25.90;;;;;;;;;;5052864;28;20508;-76
2022/01/11 01:58:16;;;;;;;35.40;27.17;;;;;;;;;;5053548;28;20486;-75
2022/01/11 02:00:50;;;;;;;32.60;26.77;;;;;;;;;;5053342;28;20972;-76
2022/01/11 02:03:18;;;;;;;33.10;26.90;;;;;;;;;;5045942;28;20813;-75
2022/01/11 02:05:46;;;;;;;36.60;27.07;;;;;;;;;;5045082;28;21003;-76
2022/01/11 02:08:13;;;;;;;34.17;26.20;;;;;;;;;;5044177;28;20459;-75
2022/01/11 02:10:40;;;;;;;36.77;26.80;;;;;;;;;;5044383;28;20488;-77
2022/01/11 02:13:09;;;;;;;33.73;25.77;;;;;;;;;;5044343;28;20500;-76
2022/01/11 02:15:37;;;;;;;40.63;26.07;;;;;;;;;;5047180;28;20474;-76
2022/01/11 02:18:08;;;;;;;32.30;26.50;;;;;;;;;;5053680;28;20474;-76
2022/01/11 02:20:37;;;;;;;32.67;26.07;;;;;;;;;;5053207;28;20446;-77
2022/01/11 02:23:04;;;;;;;41.07;28.23;;;;;;;;;;5052806;28;20445;-75
2022/01/11 02:25:31;;;;;;;37.00;25.80;;;;;;;;;;5053377;28;20450;-75
2022/01/11 02:27:58;;;;;;;38.97;27.10;;;;;;;;;;5053045;28;20473;-76
2022/01/11 02:30:25;;;;;;;34.93;28.07;;;;;;;;;;5052894;28;20443;-77
2022/01/11 02:32:53;;;;;;;37.60;28.07;;;;;;;;;;5053185;28;20472;-77
2022/01/11 02:35:20;;;;;;;39.87;27.07;;;;;;;;;;5053737;28;20446;-76
2022/01/11 02:37:48;;;;;;;34.87;27.07;;;;;;;;;;5047232;28;20544;-75
2022/01/11 02:40:16;;;;;;;35.63;26.83;;;;;;;;;;5048344;28;20438;-75
2022/01/11 02:42:43;;;;;;;37.30;27.50;;;;;;;;;;5047559;28;20451;-75
2022/01/11 02:45:13;;;;;;;33.67;26.70;;;;;;;;;;5033002;28;20439;-77
2022/01/11 02:47:41;;;;;;;34.93;26.30;;;;;;;;;;5032321;28;20478;-76
2022/01/11 02:50:09;;;;;;;34.70;26.70;;;;;;;;;;5031837;28;20451;-75
2022/01/11 02:52:36;;;;;;;34.90;27.00;;;;;;;;;;5033898;28;20430;-77
2022/01/11 02:55:06;;;;;;;36.43;26.90;;;;;;;;;;5051476;28;20994;-76
2022/01/11 02:57:33;;;;;;;34.47;26.50;;;;;;;;;;5031334;28;20483;-75
2022/01/11 03:00:00;;;;;;;40.90;28.90;;;;;;;;;;5031694;28;20505;-76
2022/01/11 03:02:27;;;;;;;33.33;26.87;;;;;;;;;;5031620;28;21208;-76
2022/01/11 03:04:54;;;;;;;38.37;27.90;;;;;;;;;;5031373;28;20448;-76
2022/01/11 03:07:22;;;;;;;37.10;27.80;;;;;;;;;;5031514;28;20466;-76
2022/01/11 03:10:00;;;;;;;36.60;26.97;;;;;;;;;;5031478;28;20494;-76
2022/01/11 03:12:28;;;;;;;37.63;27.10;;;;;;;;;;5031060;28;20785;-77
2022/01/11 03:14:55;;;;;;;33.50;25.60;;;;;;;;;;5031019;28;20456;-75
2022/01/11 03:17:22;;;;;;;33.57;26.67;;;;;;;;;;5039128;28;20958;-76
2022/01/11 03:19:49;;;;;;;36.97;27.80;;;;;;;;;;5051077;28;20442;-76
2022/01/11 03:22:17;;;;;;;36.60;26.43;;;;;;;;;;5049362;28;20446;-76
2022/01/11 03:24:44;;;;;;;33.27;26.07;;;;;;;;;;5031154;28;20518;-77
2022/01/11 03:27:11;;;;;;;33.97;25.10;;;;;;;;;;5042252;28;20496;-75
2022/01/11 03:29:40;;;;;;;34.83;25.97;;;;;;;;;;5050756;28;20496;-76
2022/01/11 03:32:07;;;;;;;30.07;24.10;;;;;;;;;;5045643;28;20444;-76
2022/01/11 03:34:34;;;;;;;33.27;25.03;;;;;;;;;;5040734;28;20497;-76
2022/01/11 03:37:01;;;;;;;31.90;24.80;;;;;;;;;;5030946;28;20533;-76
2022/01/11 03:39:29;;;;;;;29.70;25.17;;;;;;;;;;5030982;28;20438;-76
2022/01/11 03:41:56;;;;;;;31.57;23.50;;;;;;;;;;5036282;28;20918;-77
2022/01/11 03:44:23;;;;;;;34.53;24.50;;;;;;;;;;5031018;28;20447;-75
2022/01/11 03:46:51;;;;;;;33.17;23.33;;;;;;;;;;4994112;28;1054834;-76
2022/01/11 03:49:18;;;;;;;31.40;23.53;;;;;;;;;;5032000;28;20486;-75
2022/01/11 03:51:49;;;;;;;33.30;23.33;;;;;;;;;;5032765;28;20958;-76
2022/01/11 03:54:22;;;;;;;30.20;23.07;;;;;;;;;;5032151;28;20215;-76
2022/01/11 03:56:50;;;;;;;32.20;25.50;;;;;;;;;;5048128;28;20564;-75
2022/01/11 03:59:17;;;;;;;29.47;23.60;;;;;;;;;;5048403;28;20485;-76
2022/01/11 04:01:44;;;;;;;27.37;22.50;;;;;;;;;;5043364;28;20436;-76
2022/01/11 04:04:13;;;;;;;32.57;23.80;;;;;;;;;;5045219;28;20451;-76
2022/01/11 04:06:41;;;;;;;33.63;22.90;;;;;;;;;;5054302;28;20466;-76
2022/01/11 04:09:08;;;;;;;34.47;24.27;;;;;;;;;;5053389;28;20472;-77
2022/01/11 04:11:35;;;;;;;30.20;22.87;;;;;;;;;;5048478;28;20450;-76
2022/01/11 04:14:02;;;;;;;33.83;24.93;;;;;;;;;;5032216;28;20448;-76
2022/01/11 04:16:29;;;;;;;32.63;23.13;;;;;;;;;;5037165;28;20463;-75
2022/01/11 04:18:56;;;;;;;30.87;23.70;;;;;;;;;;5050869;28;20482;-77
2022/01/11 04:21:25;;;;;;;36.13;23.33;;;;;;;;;;5045826;28;20458;-75
2022/01/11 04:23:53;;;;;;;33.27;24.20;;;;;;;;;;5041685;28;20870;-76
2022/01/11 04:26:20;;;;;;;31.10;23.40;;;;;;;;;;5047599;28;20934;-76
2022/01/11 04:28:47;;;;;;;30.13;24.50;;;;;;;;;;5043083;28;20954;-76
2022/01/11 04:31:14;;;;;;;32.07;25.00;;;;;;;;;;5043287;28;20446;-75
2022/01/11 04:33:43;;;;;;;33.67;24.90;;;;;;;;;;5038993;28;20497;-75
2022/01/11 04:36:11;;;;;;;31.50;24.00;;;;;;;;;;5040537;28;20439;-77
2022/01/11 04:38:39;;;;;;;31.53;24.97;;;;;;;;;;5041401;28;20557;-75
2022/01/11 04:41:07;;;;;;;33.30;24.90;;;;;;;;;;5037862;28;20804;-76
2022/01/11 04:43:34;;;;;;;35.00;24.90;;;;;;;;;;5041876;28;20435;-74
2022/01/11 04:46:01;;;;;;;35.90;25.63;;;;;;;;;;5039737;28;20972;-75
2022/01/11 04:48:32;;;;;;;39.10;26.77;;;;;;;;;;5042581;28;20918;-75
2022/01/11 04:50:59;;;;;;;36.83;25.20;;;;;;;;;;5040644;28;20434;-75
2022/01/11 04:53:26;;;;;;;36.20;25.97;;;;;;;;;;5041728;28;20828;-76
2022/01/11 04:55:55;;;;;;;35.43;24.73;;;;;;;;;;5042946;28;20791;-75
2022/01/11 04:58:22;;;;;;;29.63;23.53;;;;;;;;;;5044277;28;20479;-76
2022/01/11 05:00:49;;;;;;;35.60;24.77;;;;;;;;;;5049599;28;20496;-76
2022/01/11 05:03:18;;;;;;;28.70;23.93;;;;;;;;;;5044300;28;20455;-76
2022/01/11 05:05:45;;;;;;;33.30;23.80;;;;;;;;;;5041655;28;20452;-76
2022/01/11 05:08:12;;;;;;;29.83;22.97;;;;;;;;;;5039756;28;20926;-76
2022/01/11 05:10:42;;;;;;;28.40;22.87;;;;;;;;;;5039167;28;20489;-75
2022/01/11 05:13:10;;;;;;;32.07;24.20;;;;;;;;;;5039842;28;20515;-76
2022/01/11 05:15:37;;;;;;;34.67;23.10;;;;;;;;;;5038808;28;20448;-75
2022/01/11 05:18:04;;;;;;;34.40;22.70;;;;;;;;;;5041922;28;20490;-75
2022/01/11 05:20:31;;;;;;;33.20;23.70;;;;;;;;;;5041382;28;20454;-75
2022/01/11 05:22:58;;;;;;;31.07;23.83;;;;;;;;;;5041874;28;20431;-77
2022/01/11 05:25:25;;;;;;;29.33;23.43;;;;;;;;;;5043892;28;20456;-75
2022/01/11 05:27:53;;;;;;;31.90;24.27;;;;;;;;;;5045847;28;20588;-75
2022/01/11 05:30:21;;;;;;;36.37;24.43;;;;;;;;;;5045201;28;20552;-76
2022/01/11 05:32:49;;;;;;;30.73;23.30;;;;;;;;;;5045848;28;20439;-75
2022/01/11 05:35:17;;;;;;;34.20;23.80;;;;;;;;;;5042383;28;20569;-76
2022/01/11 05:37:44;;;;;;;36.93;26.87;;;;;;;;;;5043592;28;20465;-75
2022/01/11 05:40:12;;;;;;;34.47;26.63;;;;;;;;;;5047360;28;20503;-75
2022/01/11 05:42:39;;;;;;;33.73;24.47;;;;;;;;;;5044559;28;20929;-76
2022/01/11 05:45:08;;;;;;;34.27;24.70;;;;;;;;;;5043763;28;20533;-75
2022/01/11 05:47:36;;;;;;;31.97;25.70;;;;;;;;;;5037708;28;20473;-75
2022/01/11 05:50:04;;;;;;;35.00;25.33;;;;;;;;;;5042992;28;20435;-76
2022/01/11 05:52:31;;;;;;;35.17;25.83;;;;;;;;;;5039964;28;20508;-75
2022/01/11 05:54:58;;;;;;;32.07;24.33;;;;;;;;;;5037967;28;20453;-75
2022/01/11 05:57:26;;;;;;;38.87;24.50;;;;;;;;;;5039462;28;20578;-76
2022/01/11 05:59:53;;;;;;;35.23;24.60;;;;;;;;;;5044765;28;20485;-75
2022/01/11 06:02:20;;;;;;;35.40;24.97;;;;;;;;;;5044143;28;20440;-76
2022/01/11 06:04:48;;;;;;;33.07;25.17;;;;;;;;;;5043729;28;20445;-77
2022/01/11 06:07:15;;;;;;;37.10;24.90;;;;;;;;;;5049255;28;20474;-75
2022/01/11 06:09:42;;;;;;;32.47;25.67;;;;;;;;;;5046804;28;20496;-77
2022/01/11 06:12:10;;;;;;;32.17;25.20;;;;;;;;;;5045489;28;20454;-76
2022/01/11 06:14:37;;;;;;;34.40;26.03;;;;;;;;;;5049680;28;20504;-74
2022/01/11 06:17:04;;;;;;;34.23;26.40;;;;;;;;;;5033227;28;20467;-76
2022/01/11 06:19:34;;;;;;;35.90;26.67;;;;;;;;;;5040469;28;20482;-76
2022/01/11 06:22:02;;;;;;;39.20;29.37;;;;;;;;;;5029328;28;20459;-75
2022/01/11 06:24:29;;;;;;;39.27;29.10;;;;;;;;;;5046003;28;20473;-76
2022/01/11 06:26:56;;;;;;;41.87;28.50;;;;;;;;;;5045476;28;20474;-77
2022/01/11 06:29:23;;;;;;;45.50;30.93;;;;;;;;;;5057270;28;20442;-77
2022/01/11 06:31:50;;;;;;;71.20;48.57;;;;;;;;;;5052139;28;20449;-76
2022/01/11 06:34:17;;;;;;;211.30;124.37;;;;;;;;;;5049442;28;20933;-76
2022/01/11 06:36:44;;;;;;;98.03;67.13;;;;;;;;;;5049539;28;20474;-76
2022/01/11 06:39:13;;;;;;;49.60;36.10;;;;;;;;;;5046298;28;20523;-76
2022/01/11 06:41:40;;;;;;;45.10;31.53;;;;;;;;;;5039093;28;20546;-76
2022/01/11 06:44:09;;;;;;;44.40;32.40;;;;;;;;;;5043946;28;20930;-77
2022/01/11 06:46:36;;;;;;;45.67;31.53;;;;;;;;;;5053137;28;20469;-76
2022/01/11 06:49:04;;;;;;;40.90;30.40;;;;;;;;;;5039404;28;20444;-76
2022/01/11 06:51:31;;;;;;;41.07;30.57;;;;;;;;;;5047307;28;20457;-77
2022/01/11 06:53:58;;;;;;;38.00;29.40;;;;;;;;;;5042641;28;20450;-77
2022/01/11 06:56:26;;;;;;;41.00;30.27;;;;;;;;;;5046337;28;20820;-77
2022/01/11 06:58:53;;;;;;;35.33;27.70;;;;;;;;;;5052214;28;20485;-77
2022/01/11 07:01:20;;;;;;;34.23;27.63;;;;;;;;;;5045559;28;20504;-77
2022/01/11 07:03:47;;;;;;;39.47;28.30;;;;;;;;;;5038071;28;20502;-77
2022/01/11 07:06:15;;;;;;;35.60;27.07;;;;;;;;;;5052808;28;20449;-77
2022/01/11 07:08:42;;;;;;;35.87;28.07;;;;;;;;;;5054483;28;20840;-77
2022/01/11 07:11:09;;;;;;;38.50;27.97;;;;;;;;;;5053990;28;20445;-77
2022/01/11 07:13:37;;;;;;;37.23;28.17;;;;;;;;;;5055584;28;20443;-76
2022/01/11 07:16:04;;;;;;;35.13;27.67;;;;;;;;;;5034378;28;20502;-77
2022/01/11 07:18:31;;;;;;;34.73;26.23;;;;;;;;;;5032466;28;20995;-77
2022/01/11 07:20:58;;;;;;;35.87;26.33;;;;;;;;;;5042474;28;20446;-77
2022/01/11 07:23:25;;;;;;;37.07;28.30;;;;;;;;;;5053424;28;20849;-78
2022/01/11 07:25:52;;;;;;;37.97;27.73;;;;;;;;;;5052093;28;20439;-76
2022/01/11 07:28:19;;;;;;;32.83;25.53;;;;;;;;;;5048863;28;20464;-77
2022/01/11 07:30:48;;;;;;;35.07;26.07;;;;;;;;;;5044073;28;20443;-76
2022/01/11 07:33:15;;;;;;;35.80;28.07;;;;;;;;;;5039653;28;20818;-76
2022/01/11 07:35:42;;;;;;;33.73;26.03;;;;;;;;;;5037394;28;20439;-76
2022/01/11 07:38:09;;;;;;;36.50;26.00;;;;;;;;;;5040160;28;20466;-75
2022/01/11 07:40:36;;;;;;;45.20;28.70;;;;;;;;;;5040257;28;20486;-76
2022/01/11 07:43:03;;;;;;;37.80;26.67;;;;;;;;;;5032358;28;20447;-76
2022/01/11 07:45:30;;;;;;;35.00;26.67;;;;;;;;;;5047103;28;20447;-77
2022/01/11 07:47:58;;;;;;;34.23;25.90;;;;;;;;;;5053316;28;20527;-76
2022/01/11 07:50:25;;;;;;;33.63;26.07;;;;;;;;;;5066058;28;20441;-76
2022/01/11 07:52:52;;;;;;;38.87;27.73;;;;;;;;;;5060098;28;20423;-75
2022/01/11 07:55:20;;;;;;;34.03;26.07;;;;;;;;;;5064211;28;20443;-76
2022/01/11 07:57:47;;;;;;;34.07;26.20;;;;;;;;;;5060433;28;20722;-75
2022/01/11 08:00:15;;;;;;;32.13;25.20;;;;;;;;;;5061876;28;20465;-76
2022/01/11 08:02:42;;;;;;;36.87;25.60;;;;;;;;;;5054989;28;20446;-76
2022/01/11 08:05:10;;;;;;;34.10;23.83;;;;;;;;;;5040417;28;20451;-75
2022/01/11 08:07:39;;;;;;;34.30;25.40;;;;;;;;;;5039966;28;20460;-76
2022/01/11 08:10:07;;;;;;;36.63;26.50;;;;;;;;;;5036830;28;20467;-76
2022/01/11 08:12:34;;;;;;;30.63;26.10;;;;;;;;;;5039961;28;20470;-76
2022/01/11 08:15:01;;;;;;;37.33;26.50;;;;;;;;;;5040386;28;20901;-77
2022/01/11 08:17:28;;;;;;;36.30;26.77;;;;;;;;;;5039558;28;20486;-75
2022/01/11 08:19:56;;;;;;;39.17;26.00;;;;;;;;;;5041353;28;20512;-76
2022/01/11 08:22:25;;;;;;;35.00;27.63;;;;;;;;;;5041840;28;20444;-76
2022/01/11 08:24:52;;;;;;;44.20;31.33;;;;;;;;;;5041750;28;20496;-76
2022/01/11 08:27:22;;;;;;;119.80;77.93;;;;;;;;;;5047349;28;20463;-77
2022/01/11 08:29:49;;;;;;;47.93;36.60;;;;;;;;;;5049491;28;20438;-76
2022/01/11 08:32:16;;;;;;;31.60;23.57;;;;;;;;;;5054279;28;20531;-77
2022/01/11 08:34:43;;;;;;;37.57;26.43;;;;;;;;;;5052998;28;21221;-78
2022/01/11 08:37:10;;;;;;;30.53;25.40;;;;;;;;;;5051378;28;20553;-77
2022/01/11 08:39:39;;;;;;;33.70;27.03;;;;;;;;;;5052417;28;20477;-77
2022/01/11 08:42:12;;;;;;;27.90;23.77;;;;;;;;;;5052042;28;20537;-77
2022/01/11 08:44:39;;;;;;;29.80;23.00;;;;;;;;;;5044401;28;20501;-77
2022/01/11 08:47:06;;;;;;;32.37;24.10;;;;;;;;;;5031306;28;20987;-76
2022/01/11 08:49:33;;;;;;;30.17;22.50;;;;;;;;;;5031507;28;20439;-77
2022/01/11 08:52:00;;;;;;;30.37;21.90;;;;;;;;;;5038138;28;21022;-75
2022/01/11 08:54:27;;;;;;;30.53;22.87;;;;;;;;;;5039127;28;20492;-75
2022/01/11 08:56:56;;;;;;;30.30;23.10;;;;;;;;;;5041345;28;20463;-76
2022/01/11 08:59:24;;;;;;;34.70;23.90;;;;;;;;;;5046391;28;20492;-76
2022/01/11 09:01:52;;;;;;;29.13;22.80;;;;;;;;;;5049750;28;20528;-77
2022/01/11 09:04:20;;;;;;;32.93;24.37;;;;;;;;;;5045808;28;20778;-76
2022/01/11 09:06:47;;;;;;;25.20;21.40;;;;;;;;;;5040865;28;20454;-76
2022/01/11 09:09:14;;;;;;;28.40;22.57;;;;;;;;;;5038240;28;20431;-76
2022/01/11 09:11:42;;;;;;;28.47;22.53;;;;;;;;;;5039929;28;20800;-76
2022/01/11 09:14:11;;;;;;;26.47;22.30;;;;;;;;;;5038370;28;20446;-76
2022/01/11 09:16:38;;;;;;;29.97;21.60;;;;;;;;;;5042477;28;20477;-76
2022/01/11 09:19:05;;;;;;;27.73;21.03;;;;;;;;;;5036101;28;20931;-76
2022/01/11 09:21:32;;;;;;;27.47;22.60;;;;;;;;;;5040510;28;20482;-76
2022/01/11 09:24:00;;;;;;;28.90;22.57;;;;;;;;;;5038027;28;20502;-76
2022/01/11 09:26:27;;;;;;;26.47;21.20;;;;;;;;;;5040792;28;20459;-76
2022/01/11 09:28:54;;;;;;;28.53;22.03;;;;;;;;;;5037741;28;20818;-76
2022/01/11 09:31:23;;;;;;;28.30;22.90;;;;;;;;;;5035657;28;20451;-75
2022/01/11 09:33:50;;;;;;;30.17;22.80;;;;;;;;;;5043175;28;20808;-77
2022/01/11 09:36:18;;;;;;;27.10;20.53;;;;;;;;;;5041293;28;20446;-76
2022/01/11 09:38:45;;;;;;;31.50;23.80;;;;;;;;;;5043521;28;20446;-76
2022/01/11 09:41:12;;;;;;;31.10;23.97;;;;;;;;;;5040366;28;20482;-76
2022/01/11 09:43:39;;;;;;;27.00;21.37;;;;;;;;;;5044431;28;20451;-77
2022/01/11 09:46:06;;;;;;;26.60;21.93;;;;;;;;;;5047884;28;20983;-78
2022/01/11 09:48:35;;;;;;;29.00;22.33;;;;;;;;;;5039127;28;20460;-77
2022/01/11 09:51:03;;;;;;;28.50;22.60;;;;;;;;;;5039903;28;20501;-76
2022/01/11 09:53:30;;;;;;;29.20;22.47;;;;;;;;;;5038070;28;20445;-75
2022/01/11 09:55:57;;;;;;;28.27;23.13;;;;;;;;;;5037135;28;20445;-79
2022/01/11 09:58:24;;;;;;;25.40;22.07;;;;;;;;;;5046829;28;20475;-75
2022/01/11 10:00:52;;;;;;;26.50;20.20;;;;;;;;;;5036570;28;20550;-76
2022/01/11 10:03:19;;;;;;;26.13;21.50;;;;;;;;;;5038543;28;20469;-77
2022/01/11 10:05:47;;;;;;;40.10;24.07;;;;;;;;;;5043574;28;20943;-76
2022/01/11 10:08:21;;;;;;;26.30;21.80;;;;;;;;;;5045186;28;20472;-77
2022/01/11 10:10:49;;;;;;;30.53;21.87;;;;;;;;;;5046223;28;20437;-76
2022/01/11 10:13:29;;;;;;;29.33;22.53;;;;;;;;;;5045824;28;20458;-77
2022/01/11 10:15:56;;;;;;;28.97;22.27;;;;;;;;;;5047632;28;20857;-77
2022/01/11 10:18:36;;;;;;;29.93;21.37;;;;;;;;;;5051120;28;20465;-77
2022/01/11 10:21:06;;;;;;;24.33;20.47;;;;;;;;;;5048497;28;20564;-78
2022/01/11 10:23:34;;;;;;;27.40;21.20;;;;;;;;;;5043413;28;20493;-76
2022/01/11 10:26:01;;;;;;;26.17;21.03;;;;;;;;;;5043920;28;20866;-76
2022/01/11 10:28:35;;;;;;;28.37;21.87;;;;;;;;;;5043757;28;20967;-77
2022/01/11 10:31:02;;;;;;;30.67;21.93;;;;;;;;;;5046498;28;21006;-77
2022/01/11 10:33:29;;;;;;;30.13;22.63;;;;;;;;;;5052699;28;20777;-77
2022/01/11 10:35:56;;;;;;;28.00;21.33;;;;;;;;;;5049214;28;20463;-77
2022/01/11 10:38:28;;;;;;;28.00;22.50;;;;;;;;;;5054694;28;20457;-77
2022/01/11 10:40:56;;;;;;;25.17;21.90;;;;;;;;;;5043891;28;20477;-76
2022/01/11 10:43:24;;;;;;;25.23;20.90;;;;;;;;;;5046325;28;20454;-77
2022/01/11 10:45:52;;;;;;;29.70;21.33;;;;;;;;;;5042899;28;20439;-78
2022/01/11 10:48:20;;;;;;;29.37;22.73;;;;;;;;;;5044279;28;20479;-77
2022/01/11 10:50:49;;;;;;;28.70;20.80;;;;;;;;;;5043035;28;20435;-77
2022/01/11 10:53:16;;;;;;;29.50;21.70;;;;;;;;;;5042059;28;20499;-77
2022/01/11 10:55:48;;;;;;;42.40;22.80;;;;;;;;;;5044939;28;20539;-77
2022/01/11 10:58:15;;;;;;;35.57;28.13;;;;;;;;;;5044077;28;20469;-77
2022/01/11 11:00:43;;;;;;;27.90;22.60;;;;;;;;;;5045528;28;20884;-77
2022/01/11 11:03:13;;;;;;;25.93;20.40;;;;;;;;;;5043051;28;20442;-77
2022/01/11 11:05:41;;;;;;;26.53;20.63;;;;;;;;;;5044090;28;20442;-77
2022/01/11 11:08:09;;;;;;;24.70;20.47;;;;;;;;;;5045734;28;20459;-77
2022/01/11 11:10:44;;;;;;;24.23;20.17;;;;;;;;;;5046972;28;20439;-77
2022/01/11 11:13:18;;;;;;;27.17;19.63;;;;;;;;;;5047486;28;20488;-78
2022/01/11 11:15:45;;;;;;;25.47;19.63;;;;;;;;;;5042219;28;20451;-77
2022/01/11 11:18:26;;;;;;;23.53;19.97;;;;;;;;;;5045448;28;20466;-77
2022/01/11 11:20:53;;;;;;;22.00;18.10;;;;;;;;;;5044693;28;21000;-77
2022/01/11 11:23:20;;;;;;;22.83;19.17;;;;;;;;;;5051166;28;20456;-77
2022/01/11 11:25:48;;;;;;;21.53;19.23;;;;;;;;;;5050666;28;20455;-78
2022/01/11 11:28:17;;;;;;;20.17;17.40;;;;;;;;;;5051253;28;20469;-76
2022/01/11 11:30:49;;;;;;;21.20;17.93;;;;;;;;;;5051408;28;20443;-76
2022/01/11 11:33:18;;;;;;;24.63;20.37;;;;;;;;;;5049725;28;20525;-76
2022/01/11 11:35:45;;;;;;;24.27;20.17;;;;;;;;;;5044425;28;21169;-77
2022/01/11 11:38:13;;;;;;;22.60;19.47;;;;;;;;;;5043613;28;20471;-76
2022/01/11 11:40:41;;;;;;;23.30;18.70;;;;;;;;;;5048987;28;20470;-76
2022/01/11 11:43:08;;;;;;;22.23;18.23;;;;;;;;;;5047801;28;20795;-77
2022/01/11 11:45:37;;;;;;;26.50;19.27;;;;;;;;;;5050209;28;20533;-78
2022/01/11 11:48:06;;;;;;;23.20;18.63;;;;;;;;;;5050583;28;20496;-77
2022/01/11 11:50:34;;;;;;;21.00;18.53;;;;;;;;;;5049443;28;20479;-78
2022/01/11 11:53:01;;;;;;;20.27;17.27;;;;;;;;;;5047262;28;20558;-77
2022/01/11 11:55:29;;;;;;;19.17;15.33;;;;;;;;;;5047678;28;20846;-77
2022/01/11 11:57:56;;;;;;;17.30;15.53;;;;;;;;;;5051150;28;20473;-77
2022/01/11 12:00:24;;;;;;;14.73;12.93;;;;;;;;;;5051558;28;20513;-77
2022/01/11 12:02:53;;;;;;;13.90;12.07;;;;;;;;;;5048965;28;20450;-78
2022/01/11 12:05:37;;;;;;;13.43;11.97;;;;;;;;;;5049689;28;20452;-78
2022/01/11 12:08:23;;;;;;;12.97;10.43;;;;;;;;;;5046326;28;20450;-78
2022/01/11 12:10:52;;;;;;;12.10;9.27;;;;;;;;;;5044660;28;20435;-77
2022/01/11 12:13:34;;;;;;;10.07;9.07;;;;;;;;;;5041981;28;20447;-77
2022/01/11 12:16:01;;;;;;;9.83;8.70;;;;;;;;;;5047736;28;20519;-77
2022/01/11 12:18:42;;;;;;;10.03;7.70;;;;;;;;;;5047052;28;20532;-76
2022/01/11 12:21:10;;;;;;;8.77;7.80;;;;;;;;;;5047835;28;20478;-77
2022/01/11 12:23:54;;;;;;;8.97;8.07;;;;;;;;;;5044163;28;20479;-78
2022/01/11 12:26:22;;;;;;;13.90;7.60;;;;;;;;;;5043363;28;20438;-77
2022/01/11 12:29:17;;;;;;;10.17;7.53;;;;;;;;;;5049799;28;20492;-77
2022/01/11 12:31:51;;;;;;;9.83;7.23;;;;;;;;;;5043332;28;20434;-77
2022/01/11 12:34:20;;;;;;;10.17;6.97;;;;;;;;;;5042908;28;20842;-77
2022/01/11 12:36:53;;;;;;;11.63;6.33;;;;;;;;;;5043055;28;20459;-76
2022/01/11 12:39:21;;;;;;;7.40;5.80;;;;;;;;;;5042789;28;20442;-76
2022/01/11 12:41:48;;;;;;;6.77;6.10;;;;;;;;;;5042864;28;20466;-77
2022/01/11 12:44:18;;;;;;;7.67;5.60;;;;;;;;;;5040417;28;20502;-78
2022/01/11 12:46:53;;;;;;;8.07;7.13;;;;;;;;;;5043196;28;20473;-77
2022/01/11 12:49:22;;;;;;;8.13;6.50;;;;;;;;;;5048557;28;20450;-77
2022/01/11 12:51:52;;;;;;;6.40;5.80;;;;;;;;;;5062165;28;20426;-77
2022/01/11 12:54:33;;;;;;;7.53;6.40;;;;;;;;;;5056960;28;20527;-76
2022/01/11 12:57:01;;;;;;;6.33;5.60;;;;;;;;;;5057289;28;20847;-77
2022/01/11 12:59:29;;;;;;;8.00;6.43;;;;;;;;;;5048888;28;20784;-78
2022/01/11 13:02:11;;;;;;;8.57;5.83;;;;;;;;;;5046732;28;20478;-77
2022/01/11 13:04:41;;;;;;;6.70;6.10;;;;;;;;;;5046026;28;20470;-76
2022/01/11 13:07:15;;;;;;;6.87;6.27;;;;;;;;;;5042591;28;20486;-77
2022/01/11 13:09:44;;;;;;;50.23;28.83;;;;;;;;;;5043671;28;20442;-78
2022/01/11 13:12:11;;;;;;;20.23;13.77;;;;;;;;;;5041308;28;20463;-79
2022/01/11 13:14:41;;;;;;;7.60;5.60;;;;;;;;;;5041566;28;20518;-78
2022/01/11 13:17:08;;;;;;;6.27;5.63;;;;;;;;;;5041238;28;20517;-79
2022/01/11 13:19:40;;;;;;;5.80;5.03;;;;;;;;;;5044626;28;20465;-77
2022/01/11 13:22:09;;;;;;;4.90;4.50;;;;;;;;;;5044317;28;20471;-78
2022/01/11 13:24:36;;;;;;;5.47;4.97;;;;;;;;;;5049160;28;20459;-78
2022/01/11 13:27:11;;;;;;;5.83;5.23;;;;;;;;;;5054150;28;20459;-76
2022/01/11 13:29:38;;;;;;;6.67;4.30;;;;;;;;;;5050327;28;20454;-77
2022/01/11 13:32:05;;;;;;;5.23;4.73;;;;;;;;;;5050075;28;20434;-78
2022/01/11 13:34:33;;;;;;;4.80;4.30;;;;;;;;;;5048021;28;20447;-77
2022/01/11 13:37:00;;;;;;;5.13;4.73;;;;;;;;;;5049938;28;20457;-77
2022/01/11 13:39:34;;;;;;;5.73;4.90;;;;;;;;;;5047825;28;20462;-79
2022/01/11 13:42:02;;;;;;;5.93;5.43;;;;;;;;;;5049844;28;20521;-77
2022/01/11 13:44:32;;;;;;;7.73;4.83;;;;;;;;;;5052081;28;20439;-79
2022/01/11 13:47:00;;;;;;;5.57;5.10;;;;;;;;;;5046374;28;20520;-79
2022/01/11 13:49:28;;;;;;;6.13;5.53;;;;;;;;;;5049324;28;20443;-78
2022/01/11 13:51:56;;;;;;;6.20;5.13;;;;;;;;;;5057258;28;20434;-79
2022/01/11 13:54:24;;;;;;;5.90;5.23;;;;;;;;;;5055000;28;20481;-79
2022/01/11 13:56:55;;;;;;;6.43;5.63;;;;;;;;;;5049977;28;20602;-77
2022/01/11 13:59:26;;;;;;;5.73;5.23;;;;;;;;;;5050909;28;20439;-80
2022/01/11 14:02:04;;;;;;;6.07;5.40;;;;;;;;;;5053049;28;20478;-78
2022/01/11 14:04:35;;;;;;;8.77;5.27;;;;;;;;;;5049238;28;20500;-79
2022/01/11 14:07:10;;;;;;;5.50;5.00;;;;;;;;;;5047802;28;20485;-77
2022/01/11 14:09:47;;;;;;;6.30;5.30;;;;;;;;;;5051373;28;20434;-78
2022/01/11 14:12:22;;;;;;;5.63;5.13;;;;;;;;;;5055154;28;21104;-78
2022/01/11 14:14:53;;;;;;;5.93;5.43;;;;;;;;;;5058658;28;20465;-78
2022/01/11 14:17:21;;;;;;;5.20;4.70;;;;;;;;;;5060271;28;20493;-79
2022/01/11 14:19:49;;;;;;;6.40;5.43;;;;;;;;;;5059968;28;20507;-79
2022/01/11 14:22:16;;;;;;;7.20;6.00;;;;;;;;;;5060408;28;20477;-78
2022/01/11 14:24:50;;;;;;;6.90;5.63;;;;;;;;;;5059825;28;20441;-80
2022/01/11 14:27:19;;;;;;;6.13;5.63;;;;;;;;;;5059970;28;20960;-78
2022/01/11 14:29:54;;;;;;;8.13;7.30;;;;;;;;;;5060979;28;20452;-78